Terminal Aerodrome Forecast
Issued by NWS Knoxville/Tri Cities, TN

Home | Current Version | Previous Version | Text Only | Print | Product List | Glossary On
Versions: 1 2 3 4 5 6 7 8 9 10 11 12 13 14 15 16 17 18 19 20 21 22 23 24 25 26
945
FTUS44 KMRX 221129
TAFCHA
TAF
KCHA 221129Z 2212/2312 12004KT P6SM OVC045
      TEMPO 2212/2216 -SHRA BKN025 OVC035
     FM221600 11012G18KT 6SM -SHRA SCT010 OVC020
     FM230000 10011G18KT 4SM -RA BR SCT007 OVC015
     FM230600 14012KT 6SM -SHRA SCT020 OVC040=

USA.gov is the U.S. government's official web portal to all federal, state and local government web resources and services.